sensor_id;sensor_type;location;lat;lon;timestamp;P1;durP1;ratioP1;P2;durP2;ratioP2
25497;SDS011;13406;53.380;7.226;2023-02-28T00:02:24;3.63;;;2.10;;
25497;SDS011;13406;53.380;7.226;2023-02-28T00:04:49;6.30;;;2.53;;
25497;SDS011;13406;53.380;7.226;2023-02-28T00:07:18;4.30;;;1.97;;
25497;SDS011;13406;53.380;7.226;2023-02-28T00:09:43;5.17;;;2.30;;
25497;SDS011;13406;53.380;7.226;2023-02-28T00:12:08;5.97;;;2.30;;
25497;SDS011;13406;53.380;7.226;2023-02-28T00:14:35;4.33;;;2.30;;
25497;SDS011;13406;53.380;7.226;2023-02-28T00:17:01;5.90;;;2.57;;
25497;SDS011;13406;53.380;7.226;2023-02-28T00:19:26;4.60;;;2.50;;
25497;SDS011;13406;53.380;7.226;2023-02-28T00:21:51;5.07;;;2.97;;
25497;SDS011;13406;53.380;7.226;2023-02-28T00:24:16;7.90;;;2.33;;
25497;SDS011;13406;53.380;7.226;2023-02-28T00:26:42;5.90;;;2.37;;
25497;SDS011;13406;53.380;7.226;2023-02-28T00:29:07;5.53;;;2.53;;
25497;SDS011;13406;53.380;7.226;2023-02-28T00:31:32;5.10;;;2.87;;
25497;SDS011;13406;53.380;7.226;2023-02-28T00:33:58;4.70;;;2.13;;
25497;SDS011;13406;53.380;7.226;2023-02-28T00:36:23;3.80;;;2.43;;
25497;SDS011;13406;53.380;7.226;2023-02-28T00:38:48;7.40;;;2.87;;
25497;SDS011;13406;53.380;7.226;2023-02-28T00:41:14;7.53;;;2.63;;
25497;SDS011;13406;53.380;7.226;2023-02-28T00:43:39;6.63;;;3.00;;
25497;SDS011;13406;53.380;7.226;2023-02-28T00:46:04;5.60;;;3.10;;
25497;SDS011;13406;53.380;7.226;2023-02-28T00:48:30;3.17;;;2.53;;
25497;SDS011;13406;53.380;7.226;2023-02-28T00:50:55;7.67;;;3.07;;
25497;SDS011;13406;53.380;7.226;2023-02-28T00:53:21;3.80;;;2.60;;
25497;SDS011;13406;53.380;7.226;2023-02-28T00:55:47;3.87;;;2.40;;
25497;SDS011;13406;53.380;7.226;2023-02-28T00:58:12;7.00;;;3.60;;
25497;SDS011;13406;53.380;7.226;2023-02-28T01:00:37;5.80;;;3.10;;
25497;SDS011;13406;53.380;7.226;2023-02-28T01:03:02;11.47;;;3.00;;
25497;SDS011;13406;53.380;7.226;2023-02-28T01:05:28;4.00;;;2.60;;
25497;SDS011;13406;53.380;7.226;2023-02-28T01:07:53;7.47;;;3.03;;
25497;SDS011;13406;53.380;7.226;2023-02-28T01:10:18;9.97;;;2.87;;
25497;SDS011;13406;53.380;7.226;2023-02-28T01:12:45;10.03;;;3.23;;
25497;SDS011;13406;53.380;7.226;2023-02-28T01:15:10;6.53;;;3.10;;
25497;SDS011;13406;53.380;7.226;2023-02-28T01:17:36;6.70;;;3.13;;
25497;SDS011;13406;53.380;7.226;2023-02-28T01:20:01;4.37;;;3.03;;
25497;SDS011;13406;53.380;7.226;2023-02-28T01:22:26;4.43;;;2.90;;
25497;SDS011;13406;53.380;7.226;2023-02-28T01:24:52;7.57;;;2.90;;
25497;SDS011;13406;53.380;7.226;2023-02-28T01:27:17;4.97;;;3.40;;
25497;SDS011;13406;53.380;7.226;2023-02-28T01:29:43;10.00;;;4.60;;
25497;SDS011;13406;53.380;7.226;2023-02-28T01:32:08;4.97;;;3.30;;
25497;SDS011;13406;53.380;7.226;2023-02-28T01:34:33;7.00;;;4.00;;
25497;SDS011;13406;53.380;7.226;2023-02-28T01:36:59;6.13;;;3.73;;
25497;SDS011;13406;53.380;7.226;2023-02-28T01:39:24;4.83;;;3.57;;
25497;SDS011;13406;53.380;7.226;2023-02-28T01:41:50;7.40;;;3.83;;
25497;SDS011;13406;53.380;7.226;2023-02-28T01:46:59;9.40;;;4.20;;
25497;SDS011;13406;53.380;7.226;2023-02-28T01:49:24;6.67;;;3.97;;
25497;SDS011;13406;53.380;7.226;2023-02-28T01:51:50;7.47;;;4.10;;
25497;SDS011;13406;53.380;7.226;2023-02-28T01:54:18;5.40;;;4.10;;
25497;SDS011;13406;53.380;7.226;2023-02-28T01:56:49;6.00;;;4.10;;
25497;SDS011;13406;53.380;7.226;2023-02-28T01:59:19;6.20;;;3.70;;
25497;SDS011;13406;53.380;7.226;2023-02-28T02:01:47;7.10;;;4.00;;
25497;SDS011;13406;53.380;7.226;2023-02-28T02:04:12;6.37;;;4.00;;
25497;SDS011;13406;53.380;7.226;2023-02-28T02:06:38;5.40;;;3.80;;
25497;SDS011;13406;53.380;7.226;2023-02-28T02:09:05;6.20;;;4.07;;
25497;SDS011;13406;53.380;7.226;2023-02-28T02:11:31;6.60;;;4.23;;
25497;SDS011;13406;53.380;7.226;2023-02-28T02:14:07;5.03;;;4.00;;
25497;SDS011;13406;53.380;7.226;2023-02-28T02:24:26;6.63;;;4.27;;
25497;SDS011;13406;53.380;7.226;2023-02-28T02:42:27;5.57;;;3.60;;
25497;SDS011;13406;53.380;7.226;2023-02-28T02:44:56;4.70;;;3.83;;
25497;SDS011;13406;53.380;7.226;2023-02-28T02:47:24;6.60;;;3.70;;
25497;SDS011;13406;53.380;7.226;2023-02-28T02:49:51;5.80;;;4.10;;
25497;SDS011;13406;53.380;7.226;2023-02-28T02:52:18;7.47;;;3.33;;
25497;SDS011;13406;53.380;7.226;2023-02-28T02:54:46;6.83;;;3.60;;
25497;SDS011;13406;53.380;7.226;2023-02-28T02:57:23;7.33;;;3.90;;
25497;SDS011;13406;53.380;7.226;2023-02-28T02:59:50;4.33;;;3.63;;
25497;SDS011;13406;53.380;7.226;2023-02-28T03:02:16;7.70;;;3.57;;
25497;SDS011;13406;53.380;7.226;2023-02-28T03:04:43;5.60;;;3.63;;
25497;SDS011;13406;53.380;7.226;2023-02-28T03:07:11;4.60;;;3.10;;
25497;SDS011;13406;53.380;7.226;2023-02-28T03:09:36;5.63;;;3.53;;
25497;SDS011;13406;53.380;7.226;2023-02-28T03:12:02;3.60;;;3.10;;
25497;SDS011;13406;53.380;7.226;2023-02-28T03:17:12;5.57;;;4.20;;
25497;SDS011;13406;53.380;7.226;2023-02-28T03:29:48;4.17;;;3.13;;
25497;SDS011;13406;53.380;7.226;2023-02-28T03:32:21;6.47;;;4.03;;
25497;SDS011;13406;53.380;7.226;2023-02-28T03:35:00;4.53;;;3.53;;
25497;SDS011;13406;53.380;7.226;2023-02-28T03:37:28;4.70;;;3.73;;
25497;SDS011;13406;53.380;7.226;2023-02-28T03:39:57;4.33;;;3.50;;
25497;SDS011;13406;53.380;7.226;2023-02-28T03:42:28;3.57;;;3.27;;
25497;SDS011;13406;53.380;7.226;2023-02-28T03:44:58;3.40;;;3.10;;
25497;SDS011;13406;53.380;7.226;2023-02-28T03:47:26;3.30;;;3.00;;
25497;SDS011;13406;53.380;7.226;2023-02-28T03:52:18;2.97;;;2.77;;
25497;SDS011;13406;53.380;7.226;2023-02-28T03:54:45;4.33;;;3.90;;
25497;SDS011;13406;53.380;7.226;2023-02-28T03:59:56;4.23;;;3.63;;
25497;SDS011;13406;53.380;7.226;2023-02-28T04:02:23;7.37;;;3.20;;
25497;SDS011;13406;53.380;7.226;2023-02-28T04:04:48;3.53;;;3.17;;
25497;SDS011;13406;53.380;7.226;2023-02-28T04:07:14;3.07;;;2.77;;
25497;SDS011;13406;53.380;7.226;2023-02-28T04:09:39;4.47;;;3.50;;
25497;SDS011;13406;53.380;7.226;2023-02-28T04:12:05;4.40;;;3.27;;
25497;SDS011;13406;53.380;7.226;2023-02-28T04:14:30;3.57;;;2.73;;
25497;SDS011;13406;53.380;7.226;2023-02-28T04:16:55;3.50;;;3.03;;
25497;SDS011;13406;53.380;7.226;2023-02-28T04:19:21;4.03;;;3.47;;
25497;SDS011;13406;53.380;7.226;2023-02-28T04:21:50;4.60;;;3.70;;
25497;SDS011;13406;53.380;7.226;2023-02-28T04:24:16;4.20;;;3.50;;
25497;SDS011;13406;53.380;7.226;2023-02-28T04:26:43;4.17;;;3.77;;
25497;SDS011;13406;53.380;7.226;2023-02-28T04:29:10;4.20;;;3.80;;
25497;SDS011;13406;53.380;7.226;2023-02-28T04:31:35;5.13;;;3.73;;
25497;SDS011;13406;53.380;7.226;2023-02-28T04:34:00;4.03;;;3.40;;
25497;SDS011;13406;53.380;7.226;2023-02-28T04:36:26;4.40;;;3.33;;
25497;SDS011;13406;53.380;7.226;2023-02-28T04:38:51;5.33;;;3.80;;
25497;SDS011;13406;53.380;7.226;2023-02-28T04:41:17;4.07;;;3.67;;
25497;SDS011;13406;53.380;7.226;2023-02-28T04:43:42;9.13;;;4.60;;
25497;SDS011;13406;53.380;7.226;2023-02-28T04:46:08;5.20;;;4.00;;
25497;SDS011;13406;53.380;7.226;2023-02-28T04:48:35;5.00;;;3.73;;
25497;SDS011;13406;53.380;7.226;2023-02-28T04:51:04;5.83;;;4.03;;
25497;SDS011;13406;53.380;7.226;2023-02-28T04:53:30;4.90;;;4.10;;
25497;SDS011;13406;53.380;7.226;2023-02-28T04:55:56;5.63;;;5.03;;
25497;SDS011;13406;53.380;7.226;2023-02-28T04:58:21;6.30;;;4.40;;
25497;SDS011;13406;53.380;7.226;2023-02-28T05:00:49;5.70;;;4.40;;
25497;SDS011;13406;53.380;7.226;2023-02-28T05:03:14;5.83;;;4.40;;
25497;SDS011;13406;53.380;7.226;2023-02-28T05:05:39;5.17;;;4.43;;
25497;SDS011;13406;53.380;7.226;2023-02-28T05:08:04;5.40;;;4.27;;
25497;SDS011;13406;53.380;7.226;2023-02-28T05:10:30;6.40;;;4.80;;
25497;SDS011;13406;53.380;7.226;2023-02-28T05:12:55;5.17;;;4.20;;
25497;SDS011;13406;53.380;7.226;2023-02-28T05:15:20;6.47;;;4.70;;
25497;SDS011;13406;53.380;7.226;2023-02-28T05:17:46;5.40;;;4.40;;
25497;SDS011;13406;53.380;7.226;2023-02-28T05:20:11;7.37;;;4.00;;
25497;SDS011;13406;53.380;7.226;2023-02-28T05:22:38;4.60;;;4.03;;
25497;SDS011;13406;53.380;7.226;2023-02-28T05:25:04;4.10;;;3.70;;
25497;SDS011;13406;53.380;7.226;2023-02-28T05:27:30;4.50;;;4.10;;
25497;SDS011;13406;53.380;7.226;2023-02-28T05:29:55;6.13;;;4.33;;
25497;SDS011;13406;53.380;7.226;2023-02-28T05:32:21;5.10;;;4.60;;
25497;SDS011;13406;53.380;7.226;2023-02-28T05:34:46;4.70;;;3.80;;
25497;SDS011;13406;53.380;7.226;2023-02-28T05:37:12;8.90;;;4.50;;
25497;SDS011;13406;53.380;7.226;2023-02-28T05:39:38;5.00;;;4.50;;
25497;SDS011;13406;53.380;7.226;2023-02-28T05:42:03;5.00;;;4.27;;
25497;SDS011;13406;53.380;7.226;2023-02-28T05:44:29;4.93;;;4.13;;
25497;SDS011;13406;53.380;7.226;2023-02-28T05:46:54;4.70;;;4.20;;
25497;SDS011;13406;53.380;7.226;2023-02-28T05:49:19;8.53;;;4.83;;
25497;SDS011;13406;53.380;7.226;2023-02-28T05:51:44;7.10;;;4.60;;
25497;SDS011;13406;53.380;7.226;2023-02-28T05:54:10;5.70;;;4.40;;
25497;SDS011;13406;53.380;7.226;2023-02-28T05:56:35;6.50;;;4.13;;
25497;SDS011;13406;53.380;7.226;2023-02-28T05:59:02;6.37;;;4.60;;
25497;SDS011;13406;53.380;7.226;2023-02-28T06:01:35;6.37;;;4.37;;
25497;SDS011;13406;53.380;7.226;2023-02-28T06:04:01;8.20;;;5.10;;
25497;SDS011;13406;53.380;7.226;2023-02-28T06:06:27;8.23;;;5.20;;
25497;SDS011;13406;53.380;7.226;2023-02-28T06:08:52;7.20;;;4.80;;
25497;SDS011;13406;53.380;7.226;2023-02-28T06:11:18;17.73;;;5.53;;
25497;SDS011;13406;53.380;7.226;2023-02-28T06:13:45;8.13;;;5.67;;
25497;SDS011;13406;53.380;7.226;2023-02-28T06:16:10;7.27;;;5.33;;
25497;SDS011;13406;53.380;7.226;2023-02-28T06:18:36;7.63;;;6.17;;
25497;SDS011;13406;53.380;7.226;2023-02-28T06:21:01;6.33;;;5.50;;
25497;SDS011;13406;53.380;7.226;2023-02-28T06:23:26;7.27;;;5.70;;
25497;SDS011;13406;53.380;7.226;2023-02-28T06:25:54;8.40;;;5.10;;
25497;SDS011;13406;53.380;7.226;2023-02-28T06:28:25;6.40;;;5.43;;
25497;SDS011;13406;53.380;7.226;2023-02-28T06:30:51;6.70;;;4.43;;
25497;SDS011;13406;53.380;7.226;2023-02-28T06:33:16;7.10;;;5.53;;
25497;SDS011;13406;53.380;7.226;2023-02-28T06:35:46;10.00;;;6.10;;
25497;SDS011;13406;53.380;7.226;2023-02-28T06:38:11;9.80;;;6.60;;
25497;SDS011;13406;53.380;7.226;2023-02-28T06:40:36;7.50;;;6.13;;
25497;SDS011;13406;53.380;7.226;2023-02-28T06:43:02;8.30;;;5.70;;
25497;SDS011;13406;53.380;7.226;2023-02-28T06:45:27;9.10;;;6.30;;
25497;SDS011;13406;53.380;7.226;2023-02-28T06:47:53;6.17;;;5.57;;
25497;SDS011;13406;53.380;7.226;2023-02-28T06:50:18;9.00;;;6.27;;
25497;SDS011;13406;53.380;7.226;2023-02-28T06:52:47;6.93;;;5.47;;
25497;SDS011;13406;53.380;7.226;2023-02-28T06:55:12;10.40;;;6.00;;
25497;SDS011;13406;53.380;7.226;2023-02-28T06:57:37;8.50;;;6.47;;
25497;SDS011;13406;53.380;7.226;2023-02-28T07:00:07;7.90;;;5.60;;
25497;SDS011;13406;53.380;7.226;2023-02-28T07:02:33;9.87;;;5.60;;
25497;SDS011;13406;53.380;7.226;2023-02-28T07:04:58;9.07;;;6.30;;
25497;SDS011;13406;53.380;7.226;2023-02-28T07:07:24;8.40;;;6.57;;
25497;SDS011;13406;53.380;7.226;2023-02-28T07:09:49;7.90;;;6.10;;
25497;SDS011;13406;53.380;7.226;2023-02-28T07:12:14;7.20;;;6.03;;
25497;SDS011;13406;53.380;7.226;2023-02-28T07:14:39;7.20;;;5.30;;
25497;SDS011;13406;53.380;7.226;2023-02-28T07:17:06;9.33;;;6.60;;
25497;SDS011;13406;53.380;7.226;2023-02-28T07:19:31;9.80;;;5.80;;
25497;SDS011;13406;53.380;7.226;2023-02-28T07:21:57;9.73;;;6.00;;
25497;SDS011;13406;53.380;7.226;2023-02-28T07:24:22;9.20;;;6.80;;
25497;SDS011;13406;53.380;7.226;2023-02-28T07:26:50;8.83;;;5.90;;
25497;SDS011;13406;53.380;7.226;2023-02-28T07:29:16;8.20;;;6.63;;
25497;SDS011;13406;53.380;7.226;2023-02-28T07:31:41;10.27;;;6.70;;
25497;SDS011;13406;53.380;7.226;2023-02-28T07:34:06;8.23;;;5.90;;
25497;SDS011;13406;53.380;7.226;2023-02-28T07:36:31;9.80;;;5.83;;
25497;SDS011;13406;53.380;7.226;2023-02-28T07:38:57;10.67;;;6.00;;
25497;SDS011;13406;53.380;7.226;2023-02-28T07:41:23;7.40;;;6.60;;
25497;SDS011;13406;53.380;7.226;2023-02-28T07:43:52;8.90;;;6.67;;
25497;SDS011;13406;53.380;7.226;2023-02-28T07:46:18;12.70;;;6.73;;
25497;SDS011;13406;53.380;7.226;2023-02-28T07:48:45;14.23;;;6.80;;
25497;SDS011;13406;53.380;7.226;2023-02-28T07:51:10;8.80;;;7.00;;
25497;SDS011;13406;53.380;7.226;2023-02-28T07:53:35;7.67;;;6.73;;
25497;SDS011;13406;53.380;7.226;2023-02-28T07:56:01;10.27;;;7.60;;
25497;SDS011;13406;53.380;7.226;2023-02-28T07:58:27;9.73;;;7.63;;
25497;SDS011;13406;53.380;7.226;2023-02-28T08:00:53;10.10;;;7.33;;
25497;SDS011;13406;53.380;7.226;2023-02-28T08:03:18;9.43;;;8.10;;
25497;SDS011;13406;53.380;7.226;2023-02-28T08:05:44;9.77;;;7.43;;
25497;SDS011;13406;53.380;7.226;2023-02-28T08:08:10;10.20;;;7.50;;
25497;SDS011;13406;53.380;7.226;2023-02-28T08:10:35;11.07;;;6.90;;
25497;SDS011;13406;53.380;7.226;2023-02-28T08:13:01;11.27;;;7.90;;
25497;SDS011;13406;53.380;7.226;2023-02-28T08:15:26;12.53;;;7.50;;
25497;SDS011;13406;53.380;7.226;2023-02-28T08:17:51;11.57;;;7.80;;
25497;SDS011;13406;53.380;7.226;2023-02-28T08:20:17;10.23;;;7.50;;
25497;SDS011;13406;53.380;7.226;2023-02-28T08:22:42;10.60;;;8.23;;
25497;SDS011;13406;53.380;7.226;2023-02-28T08:25:08;10.43;;;8.27;;
25497;SDS011;13406;53.380;7.226;2023-02-28T08:27:33;14.53;;;8.40;;
25497;SDS011;13406;53.380;7.226;2023-02-28T08:29:58;11.43;;;7.83;;
25497;SDS011;13406;53.380;7.226;2023-02-28T08:32:24;10.53;;;8.20;;
25497;SDS011;13406;53.380;7.226;2023-02-28T08:34:49;11.10;;;8.57;;
25497;SDS011;13406;53.380;7.226;2023-02-28T08:37:15;11.10;;;7.80;;
25497;SDS011;13406;53.380;7.226;2023-02-28T08:39:40;12.70;;;8.23;;
25497;SDS011;13406;53.380;7.226;2023-02-28T08:42:05;10.90;;;7.90;;
25497;SDS011;13406;53.380;7.226;2023-02-28T08:44:30;9.57;;;8.27;;
25497;SDS011;13406;53.380;7.226;2023-02-28T08:46:56;9.97;;;8.10;;
25497;SDS011;13406;53.380;7.226;2023-02-28T08:49:21;11.70;;;7.70;;
25497;SDS011;13406;53.380;7.226;2023-02-28T08:51:46;9.60;;;8.00;;
25497;SDS011;13406;53.380;7.226;2023-02-28T08:54:14;9.50;;;6.10;;
25497;SDS011;13406;53.380;7.226;2023-02-28T08:56:44;10.57;;;7.27;;
25497;SDS011;13406;53.380;7.226;2023-02-28T08:59:09;10.30;;;7.10;;
25497;SDS011;13406;53.380;7.226;2023-02-28T09:01:35;9.50;;;7.20;;
25497;SDS011;13406;53.380;7.226;2023-02-28T09:04:01;11.50;;;7.37;;
25497;SDS011;13406;53.380;7.226;2023-02-28T09:06:27;9.60;;;7.33;;
25497;SDS011;13406;53.380;7.226;2023-02-28T09:08:53;9.60;;;6.73;;
25497;SDS011;13406;53.380;7.226;2023-02-28T09:11:19;7.90;;;7.10;;
25497;SDS011;13406;53.380;7.226;2023-02-28T09:13:44;9.63;;;7.07;;
25497;SDS011;13406;53.380;7.226;2023-02-28T09:16:10;11.17;;;6.97;;
25497;SDS011;13406;53.380;7.226;2023-02-28T09:18:36;9.20;;;7.50;;
25497;SDS011;13406;53.380;7.226;2023-02-28T09:21:03;13.77;;;8.03;;
25497;SDS011;13406;53.380;7.226;2023-02-28T09:23:29;9.27;;;7.30;;
25497;SDS011;13406;53.380;7.226;2023-02-28T09:25:55;9.37;;;7.43;;
25497;SDS011;13406;53.380;7.226;2023-02-28T09:28:22;11.93;;;7.10;;
25497;SDS011;13406;53.380;7.226;2023-02-28T09:30:49;12.10;;;7.70;;
25497;SDS011;13406;53.380;7.226;2023-02-28T09:33:15;8.87;;;7.20;;
25497;SDS011;13406;53.380;7.226;2023-02-28T09:35:40;8.50;;;6.83;;
25497;SDS011;13406;53.380;7.226;2023-02-28T09:38:06;10.97;;;7.17;;
25497;SDS011;13406;53.380;7.226;2023-02-28T09:40:34;9.80;;;6.00;;
25497;SDS011;13406;53.380;7.226;2023-02-28T09:43:00;8.47;;;6.93;;
25497;SDS011;13406;53.380;7.226;2023-02-28T09:47:56;10.57;;;6.90;;
25497;SDS011;13406;53.380;7.226;2023-02-28T09:50:41;9.60;;;6.30;;
25497;SDS011;13406;53.380;7.226;2023-02-28T09:53:15;9.80;;;6.33;;
25497;SDS011;13406;53.380;7.226;2023-02-28T09:55:44;10.23;;;6.17;;
25497;SDS011;13406;53.380;7.226;2023-02-28T09:58:20;7.60;;;5.60;;
25497;SDS011;13406;53.380;7.226;2023-02-28T10:00:49;9.37;;;6.50;;
25497;SDS011;13406;53.380;7.226;2023-02-28T10:05:59;9.80;;;6.70;;
25497;SDS011;13406;53.380;7.226;2023-02-28T10:11:06;12.77;;;7.70;;
25497;SDS011;13406;53.380;7.226;2023-02-28T10:16:14;10.40;;;7.27;;
25497;SDS011;13406;53.380;7.226;2023-02-28T10:18:46;8.13;;;6.40;;
25497;SDS011;13406;53.380;7.226;2023-02-28T10:21:23;8.90;;;6.70;;
25497;SDS011;13406;53.380;7.226;2023-02-28T10:23:51;12.77;;;7.17;;
25497;SDS011;13406;53.380;7.226;2023-02-28T10:26:18;9.70;;;6.77;;
25497;SDS011;13406;53.380;7.226;2023-02-28T10:28:43;10.00;;;6.70;;
25497;SDS011;13406;53.380;7.226;2023-02-28T10:31:11;8.57;;;6.47;;
25497;SDS011;13406;53.380;7.226;2023-02-28T10:33:39;8.37;;;6.33;;
25497;SDS011;13406;53.380;7.226;2023-02-28T10:36:04;10.73;;;7.10;;
25497;SDS011;13406;53.380;7.226;2023-02-28T10:38:35;8.87;;;6.50;;
25497;SDS011;13406;53.380;7.226;2023-02-28T10:41:05;11.60;;;7.03;;
25497;SDS011;13406;53.380;7.226;2023-02-28T10:43:31;9.77;;;7.20;;
25497;SDS011;13406;53.380;7.226;2023-02-28T10:48:38;7.80;;;6.60;;
25497;SDS011;13406;53.380;7.226;2023-02-28T10:51:04;8.87;;;6.80;;
25497;SDS011;13406;53.380;7.226;2023-02-28T10:53:31;9.33;;;7.27;;
25497;SDS011;13406;53.380;7.226;2023-02-28T10:56:02;10.27;;;6.87;;
25497;SDS011;13406;53.380;7.226;2023-02-28T10:58:29;12.73;;;6.87;;
25497;SDS011;13406;53.380;7.226;2023-02-28T11:00:55;9.30;;;7.17;;
25497;SDS011;13406;53.380;7.226;2023-02-28T11:03:31;10.27;;;7.20;;
25497;SDS011;13406;53.380;7.226;2023-02-28T11:05:57;9.27;;;7.10;;
25497;SDS011;13406;53.380;7.226;2023-02-28T11:08:22;9.63;;;7.17;;
25497;SDS011;13406;53.380;7.226;2023-02-28T11:10:53;11.87;;;7.50;;
25497;SDS011;13406;53.380;7.226;2023-02-28T11:13:20;16.10;;;6.80;;
25497;SDS011;13406;53.380;7.226;2023-02-28T11:15:52;9.57;;;7.37;;
25497;SDS011;13406;53.380;7.226;2023-02-28T11:18:20;9.97;;;7.13;;
25497;SDS011;13406;53.380;7.226;2023-02-28T11:20:50;7.93;;;6.83;;
25497;SDS011;13406;53.380;7.226;2023-02-28T11:23:16;10.80;;;7.43;;
25497;SDS011;13406;53.380;7.226;2023-02-28T11:25:53;7.97;;;6.80;;
25497;SDS011;13406;53.380;7.226;2023-02-28T11:28:29;11.97;;;7.50;;
25497;SDS011;13406;53.380;7.226;2023-02-28T11:33:37;8.60;;;6.70;;
25497;SDS011;13406;53.380;7.226;2023-02-28T11:36:10;11.30;;;6.60;;
25497;SDS011;13406;53.380;7.226;2023-02-28T11:38:35;6.63;;;5.33;;
25497;SDS011;13406;53.380;7.226;2023-02-28T11:46:14;6.40;;;4.93;;
25497;SDS011;13406;53.380;7.226;2023-02-28T11:48:45;9.07;;;5.13;;
25497;SDS011;13406;53.380;7.226;2023-02-28T11:56:23;7.57;;;5.10;;
25497;SDS011;13406;53.380;7.226;2023-02-28T11:59:02;7.60;;;4.93;;
25497;SDS011;13406;53.380;7.226;2023-02-28T12:03:59;6.97;;;4.93;;
25497;SDS011;13406;53.380;7.226;2023-02-28T12:06:32;8.73;;;5.47;;
25497;SDS011;13406;53.380;7.226;2023-02-28T12:11:53;6.23;;;4.53;;
25497;SDS011;13406;53.380;7.226;2023-02-28T12:14:34;7.40;;;5.40;;
25497;SDS011;13406;53.380;7.226;2023-02-28T12:25:00;5.67;;;4.90;;
25497;SDS011;13406;53.380;7.226;2023-02-28T12:27:28;7.77;;;5.40;;
25497;SDS011;13406;53.380;7.226;2023-02-28T12:29:57;7.07;;;5.03;;
25497;SDS011;13406;53.380;7.226;2023-02-28T12:34:49;6.30;;;4.50;;
25497;SDS011;13406;53.380;7.226;2023-02-28T12:37:36;7.07;;;4.70;;
25497;SDS011;13406;53.380;7.226;2023-02-28T12:40:10;6.67;;;4.70;;
25497;SDS011;13406;53.380;7.226;2023-02-28T12:42:40;9.23;;;5.40;;
25497;SDS011;13406;53.380;7.226;2023-02-28T12:47:33;5.93;;;4.40;;
25497;SDS011;13406;53.380;7.226;2023-02-28T12:50:00;8.73;;;4.53;;
25497;SDS011;13406;53.380;7.226;2023-02-28T12:55:21;5.97;;;4.47;;
25497;SDS011;13406;53.380;7.226;2023-02-28T12:57:53;6.10;;;4.83;;
25497;SDS011;13406;53.380;7.226;2023-02-28T13:00:25;9.83;;;6.00;;
25497;SDS011;13406;53.380;7.226;2023-02-28T13:10:53;5.63;;;4.77;;
25497;SDS011;13406;53.380;7.226;2023-02-28T13:13:23;10.20;;;4.43;;
25497;SDS011;13406;53.380;7.226;2023-02-28T13:16:03;5.43;;;4.90;;
25497;SDS011;13406;53.380;7.226;2023-02-28T13:20:54;5.50;;;4.70;;
25497;SDS011;13406;53.380;7.226;2023-02-28T13:26:03;5.07;;;4.57;;
25497;SDS011;13406;53.380;7.226;2023-02-28T13:31:13;10.07;;;4.77;;
25497;SDS011;13406;53.380;7.226;2023-02-28T13:38:43;5.50;;;3.97;;
25497;SDS011;13406;53.380;7.226;2023-02-28T13:46:28;5.33;;;4.30;;
25497;SDS011;13406;53.380;7.226;2023-02-28T13:48:53;4.23;;;3.83;;
25497;SDS011;13406;53.380;7.226;2023-02-28T13:51:34;6.27;;;4.03;;
25497;SDS011;13406;53.380;7.226;2023-02-28T13:54:16;7.20;;;3.50;;
25497;SDS011;13406;53.380;7.226;2023-02-28T13:56:49;7.17;;;4.10;;
25497;SDS011;13406;53.380;7.226;2023-02-28T14:05:06;4.63;;;3.53;;
25497;SDS011;13406;53.380;7.226;2023-02-28T14:07:48;5.10;;;3.97;;
25497;SDS011;13406;53.380;7.226;2023-02-28T14:17:57;9.17;;;3.50;;
25497;SDS011;13406;53.380;7.226;2023-02-28T14:20:25;4.13;;;2.80;;
25497;SDS011;13406;53.380;7.226;2023-02-28T14:22:56;4.65;;;3.00;;
25497;SDS011;13406;53.380;7.226;2023-02-28T14:25:35;4.63;;;3.10;;
25497;SDS011;13406;53.380;7.226;2023-02-28T14:30:52;4.70;;;3.03;;
25497;SDS011;13406;53.380;7.226;2023-02-28T14:36:07;4.43;;;3.40;;
25497;SDS011;13406;53.380;7.226;2023-02-28T14:38:41;5.13;;;3.40;;
25497;SDS011;13406;53.380;7.226;2023-02-28T14:41:12;3.80;;;2.60;;
25497;SDS011;13406;53.380;7.226;2023-02-28T14:43:47;3.67;;;2.63;;
25497;SDS011;13406;53.380;7.226;2023-02-28T14:46:12;3.83;;;3.00;;
25497;SDS011;13406;53.380;7.226;2023-02-28T14:48:38;2.97;;;2.60;;
25497;SDS011;13406;53.380;7.226;2023-02-28T14:51:03;4.90;;;3.40;;
25497;SDS011;13406;53.380;7.226;2023-02-28T14:53:30;3.10;;;2.80;;
25497;SDS011;13406;53.380;7.226;2023-02-28T14:55:55;4.57;;;3.83;;
25497;SDS011;13406;53.380;7.226;2023-02-28T14:58:22;5.60;;;4.87;;
25497;SDS011;13406;53.380;7.226;2023-02-28T15:00:50;5.60;;;4.70;;
25497;SDS011;13406;53.380;7.226;2023-02-28T15:03:19;8.40;;;6.20;;
25497;SDS011;13406;53.380;7.226;2023-02-28T15:05:52;6.23;;;4.93;;
25497;SDS011;13406;53.380;7.226;2023-02-28T15:08:18;6.17;;;5.37;;
25497;SDS011;13406;53.380;7.226;2023-02-28T15:10:55;7.20;;;5.97;;
25497;SDS011;13406;53.380;7.226;2023-02-28T15:13:21;7.43;;;5.43;;
25497;SDS011;13406;53.380;7.226;2023-02-28T15:16:01;13.43;;;6.23;;
25497;SDS011;13406;53.380;7.226;2023-02-28T15:18:47;10.23;;;5.67;;
25497;SDS011;13406;53.380;7.226;2023-02-28T15:21:15;7.47;;;6.30;;
25497;SDS011;13406;53.380;7.226;2023-02-28T15:23:42;7.10;;;5.50;;
25497;SDS011;13406;53.380;7.226;2023-02-28T15:26:10;6.40;;;5.13;;
25497;SDS011;13406;53.380;7.226;2023-02-28T15:28:37;8.43;;;5.27;;
25497;SDS011;13406;53.380;7.226;2023-02-28T15:31:03;7.70;;;5.40;;
25497;SDS011;13406;53.380;7.226;2023-02-28T15:33:51;6.97;;;5.27;;
25497;SDS011;13406;53.380;7.226;2023-02-28T15:36:17;5.77;;;5.10;;
25497;SDS011;13406;53.380;7.226;2023-02-28T15:38:50;7.30;;;5.40;;
25497;SDS011;13406;53.380;7.226;2023-02-28T15:41:25;6.30;;;5.43;;
25497;SDS011;13406;53.380;7.226;2023-02-28T15:44:13;6.10;;;5.33;;
25497;SDS011;13406;53.380;7.226;2023-02-28T15:46:36;5.70;;;5.13;;
25497;SDS011;13406;53.380;7.226;2023-02-28T15:49:01;7.83;;;5.93;;
25497;SDS011;13406;53.380;7.226;2023-02-28T15:51:33;7.77;;;6.43;;
25497;SDS011;13406;53.380;7.226;2023-02-28T15:54:00;8.50;;;5.73;;
25497;SDS011;13406;53.380;7.226;2023-02-28T15:58:58;6.93;;;5.63;;
25497;SDS011;13406;53.380;7.226;2023-02-28T16:01:25;6.03;;;5.43;;
25497;SDS011;13406;53.380;7.226;2023-02-28T16:03:52;8.50;;;5.93;;
25497;SDS011;13406;53.380;7.226;2023-02-28T16:06:26;7.20;;;5.50;;
25497;SDS011;13406;53.380;7.226;2023-02-28T16:08:54;7.47;;;4.97;;
25497;SDS011;13406;53.380;7.226;2023-02-28T16:11:20;6.07;;;4.23;;
25497;SDS011;13406;53.380;7.226;2023-02-28T16:13:45;8.73;;;5.60;;
25497;SDS011;13406;53.380;7.226;2023-02-28T16:16:17;5.47;;;4.73;;
25497;SDS011;13406;53.380;7.226;2023-02-28T16:18:43;5.40;;;4.90;;
25497;SDS011;13406;53.380;7.226;2023-02-28T16:21:08;5.00;;;4.50;;
25497;SDS011;13406;53.380;7.226;2023-02-28T16:23:34;13.40;;;5.40;;
25497;SDS011;13406;53.380;7.226;2023-02-28T16:25:59;9.33;;;5.57;;
25497;SDS011;13406;53.380;7.226;2023-02-28T16:28:25;6.13;;;4.80;;
25497;SDS011;13406;53.380;7.226;2023-02-28T16:30:54;7.40;;;5.27;;
25497;SDS011;13406;53.380;7.226;2023-02-28T16:33:20;6.70;;;5.40;;
25497;SDS011;13406;53.380;7.226;2023-02-28T16:35:45;7.63;;;5.27;;
25497;SDS011;13406;53.380;7.226;2023-02-28T16:38:10;8.10;;;5.40;;
25497;SDS011;13406;53.380;7.226;2023-02-28T16:40:36;6.47;;;5.13;;
25497;SDS011;13406;53.380;7.226;2023-02-28T16:43:03;6.37;;;5.50;;
25497;SDS011;13406;53.380;7.226;2023-02-28T16:45:29;5.67;;;4.73;;
25497;SDS011;13406;53.380;7.226;2023-02-28T16:47:55;7.43;;;6.20;;
25497;SDS011;13406;53.380;7.226;2023-02-28T16:50:22;5.70;;;5.03;;
25497;SDS011;13406;53.380;7.226;2023-02-28T16:52:47;5.37;;;4.60;;
25497;SDS011;13406;53.380;7.226;2023-02-28T16:55:14;7.47;;;6.00;;
25497;SDS011;13406;53.380;7.226;2023-02-28T16:57:39;7.03;;;5.73;;
25497;SDS011;13406;53.380;7.226;2023-02-28T17:00:06;7.43;;;5.30;;
25497;SDS011;13406;53.380;7.226;2023-02-28T17:02:33;6.40;;;5.00;;
25497;SDS011;13406;53.380;7.226;2023-02-28T17:04:58;6.63;;;5.93;;
25497;SDS011;13406;53.380;7.226;2023-02-28T17:07:24;8.60;;;5.50;;